createdAt,value
2019-05-20T04:00:44.398Z,41.00
2019-05-20T04:02:44.305Z,379.20
2019-05-20T04:05:00.620Z,362.10
2019-05-20T04:06:45.281Z,371.60
2019-05-20T04:08:44.243Z,322.50
2019-05-20T04:10:44.266Z,344.60
2019-05-20T04:12:44.206Z,311.80
2019-05-20T04:14:44.199Z,343.00
2019-05-20T04:16:44.177Z,303.80
2019-05-20T04:18:44.153Z,330.40
2019-05-20T04:20:44.134Z,291.80
2019-05-20T04:22:44.085Z,310.80
2019-05-20T04:24:44.075Z,283.50
2019-05-20T04:26:44.078Z,313.20
2019-05-20T04:28:44.088Z,297.10
2019-05-20T04:30:44.020Z,290.60
2019-05-20T04:32:44.021Z,284.40
2019-05-20T04:34:44.001Z,294.50
2019-05-20T04:36:43.940Z,273.50
2019-05-20T04:38:43.961Z,294.60
2019-05-20T04:40:43.926Z,272.90
2019-05-20T04:42:43.879Z,272.70
2019-05-20T04:44:43.872Z,272.30
2019-05-20T04:46:43.860Z,277.40
2019-05-20T04:48:43.821Z,276.30
2019-05-20T04:50:43.783Z,274.00
2019-05-20T04:52:43.878Z,271.10
2019-05-20T04:54:43.760Z,273.30
2019-05-20T04:56:43.742Z,284.00
2019-05-20T04:58:43.744Z,265.20
2019-05-20T05:00:43.787Z,268.40
2019-05-20T05:02:44.049Z,258.40
2019-05-20T05:04:43.651Z,262.60
2019-05-20T05:06:43.615Z,262.60
2019-05-20T05:08:43.686Z,254.10
2019-05-20T05:10:43.576Z,256.50
2019-05-20T05:12:43.587Z,252.90
2019-05-20T05:14:43.547Z,251.00
2019-05-20T05:16:43.551Z,259.20
2019-05-20T05:18:43.479Z,253.50
2019-05-20T05:20:43.485Z,256.60
2019-05-20T05:22:43.439Z,251.80
2019-05-20T05:24:43.470Z,244.20
2019-05-20T05:26:43.417Z,243.30
2019-05-20T05:28:43.373Z,240.80
2019-05-20T05:30:43.368Z,229.50
2019-05-20T05:32:44.367Z,229.00
2019-05-20T05:34:43.318Z,228.80
2019-05-20T05:36:43.303Z,220.40
2019-05-20T05:38:43.293Z,216.50
2019-05-20T05:40:43.339Z,225.60
2019-05-20T05:42:43.244Z,224.50
2019-05-20T05:44:43.223Z,210.00
2019-05-20T05:46:43.184Z,177.50
2019-05-20T05:48:43.213Z,175.50
2019-05-20T05:50:43.140Z,195.70
2019-05-20T05:52:43.128Z,199.00
2019-05-20T05:54:43.097Z,193.90
2019-05-20T05:56:43.130Z,184.40
2019-05-20T05:58:43.068Z,192.60
2019-05-20T06:00:43.028Z,196.00
2019-05-20T06:02:43.011Z,201.10
2019-05-20T06:04:43.136Z,201.20
2019-05-20T06:06:42.998Z,195.50
2019-05-20T06:08:42.969Z,202.20
2019-05-20T06:10:42.949Z,203.40
2019-05-20T06:12:42.973Z,207.70
2019-05-20T06:14:42.889Z,208.60
2019-05-20T06:16:42.866Z,196.90
2019-05-20T06:18:42.835Z,201.60
2019-05-20T06:20:42.832Z,200.30
2019-05-20T06:22:42.793Z,218.10
2019-05-20T06:24:42.769Z,218.70
2019-05-20T06:26:42.760Z,215.10
2019-05-20T06:28:42.793Z,203.70
2019-05-20T06:30:42.722Z,217.40
2019-05-20T06:32:42.715Z,204.30
2019-05-20T06:34:43.225Z,203.30
2019-05-20T06:36:42.800Z,202.30
2019-05-20T06:38:42.633Z,185.30
2019-05-20T06:40:42.649Z,188.50
2019-05-20T06:42:42.587Z,180.80
2019-05-20T06:44:52.266Z,173.20
2019-05-20T06:46:43.595Z,171.60
2019-05-20T06:48:42.542Z,170.40
2019-05-20T06:50:42.488Z,157.80
2019-05-20T06:52:42.495Z,157.50
2019-05-20T06:54:42.457Z,163.80
2019-05-20T06:56:42.609Z,159.60
2019-05-20T06:58:42.403Z,165.30
2019-05-20T07:00:42.392Z,167.20
2019-05-20T07:02:42.375Z,172.50
2019-05-20T07:04:42.347Z,163.20
2019-05-20T07:06:46.667Z,163.10
2019-05-20T07:08:43.292Z,169.70
2019-05-20T07:10:42.284Z,171.10
2019-05-20T07:12:42.294Z,165.10
2019-05-20T07:14:42.326Z,168.70
2019-05-20T07:16:42.211Z,166.50
2019-05-20T07:18:42.296Z,176.70
2019-05-20T07:20:42.193Z,171.60
2019-05-20T07:22:55.408Z,170.00
2019-05-20T07:24:43.144Z,161.70
2019-05-20T07:26:42.124Z,169.80
2019-05-20T07:28:42.094Z,167.30
2019-05-20T07:30:42.053Z,169.80
2019-05-20T07:32:42.029Z,165.40
2019-05-20T07:34:42.110Z,156.20
2019-05-20T07:36:42.018Z,163.70
2019-05-20T07:38:42.005Z,163.10
2019-05-20T07:40:41.947Z,159.10
2019-05-20T07:42:42.009Z,159.30
2019-05-20T07:44:41.914Z,158.20
2019-05-20T07:46:41.885Z,157.30
2019-05-20T07:48:41.879Z,152.00
2019-05-20T07:50:41.885Z,152.00
2019-05-20T07:52:41.814Z,149.40
2019-05-20T07:54:41.817Z,158.30
2019-05-20T07:56:41.781Z,149.50
2019-05-20T07:58:41.869Z,150.00
2019-05-20T08:00:41.792Z,142.70
2019-05-20T08:02:41.736Z,140.30
2019-05-20T08:04:41.697Z,137.10
2019-05-20T08:06:41.788Z,128.20
2019-05-20T08:08:41.677Z,137.30
2019-05-20T08:10:41.644Z,130.50
2019-05-20T08:12:41.613Z,132.90
2019-05-20T08:14:41.594Z,126.30
2019-05-20T08:16:41.566Z,122.50
2019-05-20T08:18:41.548Z,120.00
2019-05-20T08:20:41.528Z,114.70
2019-05-20T08:22:41.533Z,110.00
2019-05-20T08:24:41.500Z,104.40
2019-05-20T08:26:41.448Z,101.20
2019-05-20T08:28:41.467Z,96.50
2019-05-20T08:30:41.414Z,72.20
2019-05-20T08:32:41.428Z,64.60
2019-05-20T08:34:41.420Z,67.30
2019-05-20T08:36:41.353Z,60.00
2019-05-20T08:38:41.322Z,58.30
2019-05-20T08:40:41.330Z,58.80
2019-05-20T08:42:41.345Z,60.60
2019-05-20T08:44:41.298Z,57.00
2019-05-20T08:46:41.272Z,62.80
2019-05-20T08:48:41.291Z,65.80
2019-05-20T08:50:41.237Z,67.30
2019-05-20T08:52:41.205Z,73.10
2019-05-20T08:54:41.166Z,90.00
2019-05-20T08:56:41.127Z,95.10
2019-05-20T08:58:41.228Z,103.90
2019-05-20T09:00:41.111Z,112.60
2019-05-20T09:02:41.105Z,118.10
2019-05-20T09:04:41.037Z,111.20
2019-05-20T09:06:41.095Z,119.50
2019-05-20T09:08:41.058Z,115.30
2019-05-20T09:10:40.979Z,116.20
2019-05-20T09:12:40.963Z,113.70
2019-05-20T09:14:40.964Z,106.80
2019-05-20T09:16:40.913Z,102.60
2019-05-20T09:18:40.917Z,101.90
2019-05-20T09:20:40.941Z,98.50
2019-05-20T09:22:40.908Z,92.80
2019-05-20T09:24:40.949Z,91.20
2019-05-20T09:26:40.808Z,82.80
2019-05-20T09:28:40.795Z,90.00
2019-05-20T09:30:40.779Z,90.70
2019-05-20T09:32:42.948Z,88.90
2019-05-20T09:34:40.729Z,84.20
2019-05-20T09:36:40.711Z,81.20
2019-05-20T09:38:40.687Z,84.90
2019-05-20T09:40:40.710Z,82.70
2019-05-20T09:42:41.284Z,85.90
2019-05-20T09:44:40.636Z,81.80
2019-05-20T09:46:40.624Z,76.60
2019-05-20T09:48:40.565Z,73.60
2019-05-20T09:50:40.623Z,65.30
2019-05-20T09:52:40.554Z,57.80
2019-05-20T09:54:40.521Z,57.40
2019-05-20T09:56:40.484Z,54.40
2019-05-20T09:58:40.547Z,54.20
2019-05-20T10:00:40.450Z,53.30
2019-05-20T10:02:40.425Z,54.60
2019-05-20T10:04:40.397Z,50.10
2019-05-20T10:06:40.399Z,51.70
2019-05-20T10:08:44.798Z,54.30
2019-05-20T10:10:40.326Z,56.40
2019-05-20T10:12:46.557Z,49.90
2019-05-20T10:14:41.305Z,49.90
2019-05-20T10:16:40.260Z,49.30
2019-05-20T10:18:40.256Z,53.00
2019-05-20T10:20:40.278Z,53.90
2019-05-20T10:22:40.195Z,55.90
2019-05-20T10:24:40.179Z,73.00
2019-05-20T10:26:40.260Z,69.70
2019-05-20T10:28:41.865Z,62.40
2019-05-20T10:30:40.130Z,53.10
2019-05-20T10:32:40.099Z,48.80
2019-05-20T10:34:40.123Z,49.20
2019-05-20T10:36:40.067Z,46.60
2019-05-20T10:38:56.926Z,50.40
2019-05-20T10:40:41.087Z,50.40
2019-05-20T10:42:40.010Z,57.00
2019-05-20T10:44:41.973Z,57.80
2019-05-20T10:46:39.943Z,53.60
2019-05-20T10:48:39.999Z,54.80
2019-05-20T10:50:39.910Z,54.00
2019-05-20T10:52:39.915Z,51.80
2019-05-20T10:54:39.883Z,48.50
2019-05-20T10:56:39.838Z,49.00
2019-05-20T10:58:39.813Z,47.80
2019-05-20T11:00:39.797Z,47.00
2019-05-20T11:02:39.845Z,47.80
2019-05-20T11:04:39.779Z,51.10
2019-05-20T11:06:39.755Z,52.10
2019-05-20T11:08:39.699Z,53.00
2019-05-20T11:10:39.771Z,53.50
2019-05-20T11:12:39.683Z,52.80
2019-05-20T11:14:39.654Z,53.60
2019-05-20T11:16:39.627Z,55.10
2019-05-20T11:18:39.685Z,52.70
2019-05-20T11:20:39.586Z,56.40
2019-05-20T11:22:39.567Z,58.60
2019-05-20T11:24:39.536Z,60.30
2019-05-20T11:26:39.584Z,58.90
2019-05-20T11:28:39.529Z,58.80
2019-05-20T11:30:39.468Z,59.80
2019-05-20T11:32:39.456Z,56.70
2019-05-20T11:34:39.473Z,58.90
2019-05-20T11:36:39.417Z,61.00
2019-05-20T11:38:39.406Z,63.40
2019-05-20T11:40:39.358Z,63.90
2019-05-20T11:42:39.390Z,61.40
2019-05-20T11:44:39.331Z,59.00
2019-05-20T11:46:39.309Z,58.90
2019-05-20T11:48:39.283Z,75.30
2019-05-20T11:50:39.299Z,68.40
2019-05-20T11:52:39.254Z,63.90
2019-05-20T11:54:39.262Z,62.70
2019-05-20T11:56:39.186Z,64.50
2019-05-20T11:58:39.225Z,66.70
2019-05-20T12:00:39.143Z,66.60
2019-05-20T12:02:39.184Z,69.50
2019-05-20T12:04:39.117Z,70.20
2019-05-20T12:06:39.094Z,68.80
2019-05-20T12:08:39.064Z,69.10
2019-05-20T12:10:39.075Z,65.90
2019-05-20T12:12:39.048Z,64.90
2019-05-20T12:14:39.011Z,64.90
2019-05-20T12:16:38.973Z,65.40
2019-05-20T12:18:38.994Z,65.90
2019-05-20T12:20:38.953Z,68.40
2019-05-20T12:22:39.009Z,66.10
2019-05-20T12:24:38.882Z,70.80
2019-05-20T12:26:38.979Z,70.00
2019-05-20T12:28:38.885Z,69.90
2019-05-20T12:30:38.857Z,67.60
2019-05-20T12:32:38.833Z,71.30
2019-05-20T12:34:38.815Z,73.00
2019-05-20T12:36:38.758Z,78.40
2019-05-20T12:38:38.813Z,83.10
2019-05-20T12:40:38.733Z,85.80
2019-05-20T12:42:38.737Z,70.10
2019-05-20T12:44:38.673Z,66.80
2019-05-20T12:46:38.714Z,68.10
2019-05-20T12:48:38.648Z,65.90
2019-05-20T12:50:38.611Z,68.70
2019-05-20T12:52:38.610Z,71.60
2019-05-20T12:54:38.647Z,73.30
2019-05-20T12:56:38.547Z,73.50
2019-05-20T12:58:38.574Z,75.10
2019-05-20T13:00:38.546Z,74.30
2019-05-20T13:02:38.493Z,71.70
2019-05-20T13:04:38.462Z,70.30
2019-05-20T13:06:38.451Z,70.40
2019-05-20T13:08:38.410Z,72.40
2019-05-20T13:10:38.405Z,71.10
2019-05-20T13:12:38.403Z,74.80
2019-05-20T13:14:38.361Z,68.20
2019-05-20T13:16:38.336Z,71.70
2019-05-20T13:18:38.315Z,71.60
2019-05-20T13:20:38.306Z,69.40
2019-05-20T13:22:38.266Z,71.90
2019-05-20T13:24:38.289Z,73.70
2019-05-20T13:26:38.232Z,67.50
2019-05-20T13:28:38.206Z,64.30
2019-05-20T13:30:38.417Z,65.40
2019-05-20T13:32:38.155Z,62.60
2019-05-20T13:34:38.148Z,65.00
2019-05-20T13:36:38.147Z,65.60
2019-05-20T13:38:38.101Z,62.70
2019-05-20T13:40:46.590Z,62.10
2019-05-20T13:42:39.078Z,65.30
2019-05-20T13:44:38.023Z,63.00
2019-05-20T13:46:38.070Z,61.00
2019-05-20T13:48:38.031Z,62.00
2019-05-20T13:50:37.955Z,62.40
2019-05-20T13:52:37.985Z,60.10
2019-05-20T13:54:37.939Z,65.20
2019-05-20T13:56:37.951Z,58.20
2019-05-20T13:58:37.876Z,59.10
2019-05-20T14:00:37.906Z,58.20
2019-05-20T14:02:37.886Z,57.90
2019-05-20T14:04:37.817Z,61.80
2019-05-20T14:06:37.840Z,61.00
2019-05-20T14:08:37.777Z,60.90
2019-05-20T14:10:37.811Z,62.30
2019-05-20T14:12:37.723Z,64.60
2019-05-20T14:14:37.713Z,63.10
2019-05-20T14:16:37.751Z,65.60
2019-05-20T14:18:37.667Z,64.40
2019-05-20T14:20:37.656Z,70.50
2019-05-20T14:22:37.619Z,63.50
2019-05-20T14:24:37.648Z,65.20
2019-05-20T14:26:37.589Z,67.20
2019-05-20T14:28:37.571Z,65.40
2019-05-20T14:30:37.533Z,65.00
2019-05-20T14:32:37.503Z,63.60
2019-05-20T14:34:37.556Z,65.10
2019-05-20T14:36:40.011Z,66.50
2019-05-20T14:38:37.448Z,68.10
2019-05-20T14:40:37.442Z,67.10
2019-05-20T14:42:37.439Z,68.30
2019-05-20T14:44:37.382Z,65.00
2019-05-20T14:46:37.452Z,70.60
2019-05-20T14:48:37.415Z,63.50
2019-05-20T14:50:37.336Z,64.60
2019-05-20T14:52:37.301Z,62.40
2019-05-20T14:54:37.355Z,62.90
2019-05-20T14:56:37.340Z,63.30
2019-05-20T14:58:37.236Z,63.20
2019-05-20T15:00:37.201Z,63.00
2019-05-20T15:02:37.251Z,63.60
2019-05-20T15:04:37.193Z,66.00
2019-05-20T15:06:37.175Z,60.30
2019-05-20T15:08:37.117Z,65.20
2019-05-20T15:10:37.117Z,64.90
2019-05-20T15:12:37.076Z,64.50
2019-05-20T15:14:37.115Z,66.70
2019-05-20T15:16:37.028Z,64.40
2019-05-20T15:18:37.060Z,64.80
2019-05-20T15:20:37.030Z,65.20
2019-05-20T15:22:36.963Z,64.30
2019-05-20T15:24:36.965Z,69.10
2019-05-20T15:26:37.013Z,72.80
2019-05-20T15:28:36.916Z,72.00
2019-05-20T15:30:36.892Z,72.10
2019-05-20T15:32:36.936Z,73.60
2019-05-20T15:34:36.835Z,80.30
2019-05-20T15:36:36.836Z,76.10
2019-05-20T15:38:36.833Z,77.80
2019-05-20T15:40:36.788Z,75.50
2019-05-20T15:42:36.829Z,77.10
2019-05-20T15:44:36.731Z,72.70
2019-05-20T15:46:36.731Z,71.30
2019-05-20T15:48:36.702Z,72.00
2019-05-20T15:50:36.662Z,73.10
2019-05-20T15:52:37.181Z,74.00
2019-05-20T15:54:36.658Z,73.50
2019-05-20T15:56:36.619Z,79.40
2019-05-20T15:58:36.579Z,77.60
2019-05-20T16:00:36.615Z,72.50
2019-05-20T16:02:36.548Z,73.90
2019-05-20T16:04:36.571Z,75.20
2019-05-20T16:06:36.496Z,72.60
2019-05-20T16:08:36.486Z,73.90
2019-05-20T16:10:36.486Z,73.60
2019-05-20T16:12:36.564Z,72.30
2019-05-20T16:14:36.420Z,70.90
2019-05-20T16:16:36.420Z,69.70
2019-05-20T16:18:36.387Z,68.10
2019-05-20T16:20:36.381Z,71.10
2019-05-20T16:22:36.393Z,67.00
2019-05-20T16:24:36.304Z,68.80
2019-05-20T16:26:36.291Z,68.40
2019-05-20T16:28:36.257Z,68.60
2019-05-20T16:30:36.307Z,69.00
2019-05-20T16:32:36.223Z,68.90
2019-05-20T16:34:36.209Z,68.70
2019-05-20T16:36:36.247Z,66.60
2019-05-20T16:38:36.155Z,65.10
2019-05-20T16:40:36.159Z,65.40
2019-05-20T16:42:36.158Z,64.40
2019-05-20T16:44:36.086Z,61.40
2019-05-20T16:46:36.096Z,60.10
2019-05-20T16:48:36.054Z,58.10
2019-05-20T16:50:36.025Z,59.30
2019-05-20T16:52:36.017Z,59.80
2019-05-20T16:54:35.994Z,60.70
2019-05-20T16:56:36.018Z,58.20
2019-05-20T16:58:35.954Z,60.00
2019-05-20T17:00:35.918Z,57.80
2019-05-20T17:02:35.915Z,58.20
2019-05-20T17:04:35.913Z,60.50
2019-05-20T17:06:35.859Z,60.10
2019-05-20T17:08:35.903Z,60.10
2019-05-20T17:10:35.808Z,58.80
2019-05-20T17:12:35.803Z,58.80
2019-05-20T17:14:35.797Z,58.70
2019-05-20T17:16:35.760Z,58.50
2019-05-20T17:18:35.714Z,57.90
2019-05-20T17:20:35.827Z,60.80
2019-05-20T17:22:35.717Z,56.70
2019-05-20T17:24:35.655Z,60.10
2019-05-20T17:26:35.651Z,59.60
2019-05-20T17:28:35.677Z,59.80
2019-05-20T17:30:44.963Z,59.40
2019-05-20T17:32:36.618Z,57.70
2019-05-20T17:34:35.562Z,60.30
2019-05-20T17:36:35.551Z,60.50
2019-05-20T17:38:35.545Z,63.20
2019-05-20T17:40:35.505Z,54.90
2019-05-20T17:42:35.548Z,59.50
2019-05-20T17:44:35.505Z,60.60
2019-05-20T17:46:35.511Z,61.30
2019-05-20T17:48:35.453Z,61.50
2019-05-20T17:50:35.426Z,59.60
2019-05-20T17:52:35.367Z,60.50
2019-05-20T17:54:35.334Z,59.20
2019-05-20T17:56:35.347Z,60.00
2019-05-20T17:58:37.347Z,57.80
2019-05-20T18:00:35.316Z,59.10
2019-05-20T18:02:35.269Z,58.30
2019-05-20T18:04:35.225Z,61.10
2019-05-20T18:06:35.219Z,60.80
2019-05-20T18:08:35.204Z,57.90
2019-05-20T18:10:35.164Z,61.50
2019-05-20T18:12:35.150Z,56.70
2019-05-20T18:14:35.140Z,58.70
2019-05-20T18:16:35.107Z,56.50
2019-05-20T18:18:35.082Z,60.10
2019-05-20T18:20:35.116Z,60.30
2019-05-20T18:22:35.041Z,58.10
2019-05-20T18:24:35.047Z,58.40
2019-05-20T18:26:34.997Z,59.50
2019-05-20T18:28:34.997Z,57.60
2019-05-20T18:30:34.959Z,56.80
2019-05-20T18:32:34.956Z,60.20
2019-05-20T18:34:34.897Z,55.20
2019-05-20T18:36:34.969Z,57.80
2019-05-20T18:38:34.900Z,59.80
2019-05-20T18:40:34.847Z,55.90
2019-05-20T18:42:34.853Z,58.20
2019-05-20T18:44:34.792Z,57.10
2019-05-20T18:46:34.779Z,58.00
2019-05-20T18:48:34.768Z,57.60
2019-05-20T18:50:34.751Z,58.20
2019-05-20T18:52:34.737Z,57.70
2019-05-20T18:54:34.697Z,59.00
2019-05-20T18:56:34.694Z,53.50
2019-05-20T18:58:34.693Z,57.80
2019-05-20T19:00:34.619Z,57.40
2019-05-20T19:02:34.678Z,53.10
2019-05-20T19:04:34.578Z,54.60
2019-05-20T19:06:34.554Z,54.00
2019-05-20T19:08:34.584Z,54.10
2019-05-20T19:10:34.574Z,54.10
2019-05-20T19:12:34.527Z,52.50
2019-05-20T19:14:34.506Z,52.90
2019-05-20T19:16:34.483Z,54.90
2019-05-20T19:18:34.461Z,53.70
2019-05-20T19:20:34.417Z,50.30
2019-05-20T19:22:34.394Z,53.30
2019-05-20T19:24:34.395Z,53.60
2019-05-20T19:26:34.334Z,51.50
2019-05-20T19:28:34.313Z,50.30
2019-05-20T19:30:34.324Z,52.60
2019-05-20T19:32:34.276Z,53.10
2019-05-20T19:34:34.255Z,53.40
2019-05-20T19:36:34.242Z,53.90
2019-05-20T19:38:35.012Z,53.20
2019-05-20T19:40:34.221Z,52.80
2019-05-20T19:42:34.206Z,54.90
2019-05-20T19:44:34.192Z,52.70
2019-05-20T19:46:34.146Z,54.80
2019-05-20T19:48:34.145Z,55.70
2019-05-20T19:50:34.085Z,54.60
2019-05-20T19:52:34.068Z,55.00
2019-05-20T19:54:34.100Z,54.20
2019-05-20T19:56:34.056Z,54.90
2019-05-20T19:58:34.031Z,55.30
2019-05-20T20:00:33.976Z,57.00
2019-05-20T20:02:33.952Z,59.40
2019-05-20T20:04:33.996Z,58.80
2019-05-20T20:06:33.905Z,59.60
2019-05-20T20:08:33.938Z,63.60
2019-05-20T20:10:33.893Z,60.10
2019-05-20T20:12:33.848Z,63.60
2019-05-20T20:14:33.868Z,59.30
2019-05-20T20:16:33.803Z,62.80
2019-05-20T20:18:33.830Z,64.10
2019-05-20T20:20:33.760Z,61.00
2019-05-20T20:22:33.770Z,59.60
2019-05-20T20:24:33.718Z,62.00
2019-05-20T20:26:33.700Z,62.00
2019-05-20T20:28:33.677Z,63.20
2019-05-20T20:30:33.643Z,65.50
2019-05-20T20:32:37.834Z,64.30
2019-05-20T20:34:33.596Z,65.10
2019-05-20T20:36:33.605Z,62.10
2019-05-20T20:38:33.607Z,64.20
2019-05-20T20:40:33.543Z,65.20
2019-05-20T20:42:33.686Z,67.20
2019-05-20T20:44:33.665Z,63.80
2019-05-20T20:46:33.543Z,64.50
2019-05-20T20:48:33.532Z,68.20
2019-05-20T20:50:33.509Z,66.30
2019-05-20T20:52:33.462Z,66.10
2019-05-20T20:54:33.421Z,63.50
2019-05-20T20:56:34.273Z,68.90
2019-05-20T20:58:33.348Z,66.10
2019-05-20T21:00:33.331Z,68.90
2019-05-20T21:02:33.290Z,68.70
2019-05-20T21:04:33.283Z,66.10
2019-05-20T21:06:33.282Z,70.60
2019-05-20T21:08:33.229Z,69.10
2019-05-20T21:10:33.212Z,71.30
2019-05-20T21:12:33.200Z,75.80
2019-05-20T21:14:33.176Z,75.80
2019-05-20T21:16:33.154Z,77.80
2019-05-20T21:18:33.146Z,76.00
2019-05-20T21:20:33.106Z,83.20
2019-05-20T21:22:33.092Z,82.00
2019-05-20T21:24:33.050Z,85.40
2019-05-20T21:26:33.045Z,84.90
2019-05-20T21:28:33.017Z,87.50
2019-05-20T21:30:32.997Z,88.90
2019-05-20T21:32:32.967Z,89.70
2019-05-20T21:34:33.025Z,91.60
2019-05-20T21:36:46.594Z,93.20
2019-05-20T21:38:33.909Z,101.40
2019-05-20T21:40:32.909Z,97.80
2019-05-20T21:42:32.887Z,99.90
2019-05-20T21:44:32.866Z,99.20
2019-05-20T21:46:32.819Z,102.00
2019-05-20T21:48:32.789Z,104.20
2019-05-20T21:50:32.777Z,105.90
2019-05-20T21:52:32.769Z,108.80
2019-05-20T21:54:32.728Z,104.60
2019-05-20T21:56:32.769Z,111.10
2019-05-20T21:58:32.701Z,113.60
2019-05-20T22:00:32.681Z,112.20
2019-05-20T22:02:32.648Z,115.60
2019-05-20T22:04:32.613Z,115.50
2019-05-20T22:06:32.621Z,120.20
2019-05-20T22:08:32.580Z,119.70
2019-05-20T22:10:32.563Z,123.40
2019-05-20T22:12:32.538Z,120.50
2019-05-20T22:14:32.516Z,125.70
2019-05-20T22:16:32.489Z,121.10
2019-05-20T22:18:32.478Z,116.00
2019-05-20T22:20:32.498Z,113.50
2019-05-20T22:22:39.473Z,113.30
2019-05-20T22:24:32.396Z,115.00
2019-05-20T22:26:32.374Z,120.30
2019-05-20T22:28:32.379Z,125.00
2019-05-20T22:30:32.336Z,124.10
2019-05-20T22:32:32.345Z,118.80
2019-05-20T22:34:32.338Z,123.90
2019-05-20T22:36:32.275Z,115.80
2019-05-20T22:38:32.260Z,115.90
2019-05-20T22:40:32.242Z,114.00
2019-05-20T22:42:32.206Z,105.90
2019-05-20T22:44:32.191Z,106.70
2019-05-20T22:46:32.205Z,105.80
2019-05-20T22:48:32.162Z,99.00
2019-05-20T22:50:32.147Z,101.60
2019-05-20T22:52:32.107Z,102.30
2019-05-20T22:54:32.089Z,107.00
2019-05-20T22:56:32.060Z,98.60
2019-05-20T22:58:32.044Z,104.50
2019-05-20T23:00:32.023Z,105.20
2019-05-20T23:02:31.987Z,107.20
2019-05-20T23:04:31.982Z,101.30
2019-05-20T23:06:31.958Z,106.30
2019-05-20T23:08:31.942Z,108.10
2019-05-20T23:10:31.954Z,107.90
2019-05-20T23:12:31.876Z,107.90
2019-05-20T23:14:31.868Z,103.40
2019-05-20T23:16:31.862Z,102.50
2019-05-20T23:18:31.830Z,99.90
2019-05-20T23:20:31.814Z,109.40
2019-05-20T23:22:31.813Z,114.10
2019-05-20T23:24:31.767Z,107.10
2019-05-20T23:26:31.788Z,106.90
2019-05-20T23:28:31.738Z,117.70
